Time;durP1;ratioP1;P1;durP2;ratioP2;P2;SDS_P1;SDS_P2;PMS_P1;PMS_P2;Temp;Humidity;BMP_temperature;BMP_pressure;BME280_temperature;BME280_humidity;BME280_pressure;Samples;Min_cycle;Max_cycle;Signal;HPM_P1;HPM_P2
2023/03/16 00:00:23;;;;;;;5.80;3.10;;;2.10;47.60;;;;;;5013391;28;46463;-79
2023/03/16 00:02:49;;;;;;;6.45;3.10;;;2.10;47.70;;;;;;5015114;28;45989;-78
2023/03/16 00:05:15;;;;;;;4.10;2.80;;;2.00;47.80;;;;;;5012508;28;46480;-79
2023/03/16 00:07:41;;;;;;;6.90;3.37;;;1.90;47.90;;;;;;5014016;28;45909;-77
2023/03/16 00:10:08;;;;;;;8.68;3.45;;;1.90;48.00;;;;;;5011780;28;46583;-79
2023/03/16 00:12:33;;;;;;;4.93;3.20;;;1.80;48.10;;;;;;5014408;28;45851;-80
2023/03/16 00:14:59;;;;;;;4.17;2.73;;;1.80;48.30;;;;;;5014464;28;46180;-78
2023/03/16 00:17:25;;;;;;;7.90;3.53;;;1.70;48.30;;;;;;5016042;28;46692;-80
2023/03/16 00:19:53;;;;;;;7.18;3.97;;;1.70;48.40;;;;;;5013027;28;46407;-80
2023/03/16 00:22:21;;;;;;;20.20;7.68;;;1.70;48.70;;;;;;5015770;28;46388;-80
2023/03/16 00:24:47;;;;;;;30.70;9.30;;;1.70;48.50;;;;;;5012142;28;47375;-81
2023/03/16 00:27:13;;;;;;;20.53;8.23;;;1.70;48.50;;;;;;5016832;28;45946;-78
2023/03/16 00:29:54;;;;;;;21.85;6.05;;;1.60;48.40;;;;;;5014974;28;46511;-80
2023/03/16 00:32:24;;;;;;;19.58;6.25;;;1.60;48.60;;;;;;5016351;28;46311;-81
2023/03/16 00:34:50;;;;;;;12.25;4.85;;;1.60;48.50;;;;;;5013481;28;46424;-80
2023/03/16 00:37:18;;;;;;;7.53;4.00;;;1.60;48.80;;;;;;5011280;28;46404;-80
2023/03/16 00:39:45;;;;;;;6.07;3.42;;;1.60;48.60;;;;;;5013054;28;46468;-82
2023/03/16 00:42:13;;;;;;;9.65;3.55;;;1.60;48.70;;;;;;5015956;28;46632;-81
2023/03/16 00:44:40;;;;;;;5.53;3.40;;;1.60;49.00;;;;;;5016453;28;46280;-80
2023/03/16 00:47:06;;;;;;;11.85;3.35;;;1.60;48.90;;;;;;5019283;28;45940;-81
2023/03/16 00:49:33;;;;;;;5.45;3.13;;;1.60;48.90;;;;;;5020814;28;46376;-81
2023/03/16 00:52:03;;;;;;;5.32;3.35;;;1.60;48.90;;;;;;5020629;28;46875;-80
2023/03/16 00:54:31;;;;;;;6.35;2.95;;;1.70;48.80;;;;;;5021299;28;47239;-82
2023/03/16 00:56:58;;;;;;;8.10;3.03;;;1.60;48.90;;;;;;5018378;28;46235;-80
2023/03/16 00:59:25;;;;;;;5.70;3.13;;;1.60;49.10;;;;;;5019068;28;46396;-83
2023/03/16 01:01:51;;;;;;;10.02;3.60;;;1.60;49.10;;;;;;5021072;28;46474;-80
2023/03/16 01:04:17;;;;;;;9.20;3.17;;;1.50;49.30;;;;;;5013590;28;47140;-80
2023/03/16 01:06:44;;;;;;;6.35;3.30;;;1.50;49.50;;;;;;5014482;28;46915;-80
2023/03/16 01:09:10;;;;;;;5.70;3.20;;;1.40;49.60;;;;;;5012974;28;47358;-76
2023/03/16 01:11:35;;;;;;;9.55;3.47;;;1.30;49.80;;;;;;5012150;28;46569;-80
2023/03/16 01:14:01;;;;;;;5.00;3.00;;;1.30;50.20;;;;;;5014196;28;46580;-80
2023/03/16 01:16:27;;;;;;;5.93;3.40;;;1.20;50.50;;;;;;5018562;28;45883;-81
2023/03/16 01:18:53;;;;;;;5.20;2.87;;;1.20;50.50;;;;;;5014737;28;45895;-81
2023/03/16 01:21:21;;;;;;;5.45;3.33;;;1.10;50.70;;;;;;5010359;28;46100;-79
2023/03/16 01:23:46;;;;;;;4.30;2.58;;;1.00;50.80;;;;;;5014449;28;47442;-82
2023/03/16 01:26:15;;;;;;;4.03;2.80;;;1.00;50.80;;;;;;5017488;28;46380;-80
2023/03/16 01:28:43;;;;;;;5.40;3.65;;;1.00;50.90;;;;;;5016053;28;46388;-81
2023/03/16 01:31:13;;;;;;;12.05;4.45;;;0.90;51.00;;;;;;5011008;28;46649;-79
2023/03/16 01:33:39;;;;;;;7.43;4.15;;;0.90;51.10;;;;;;5012534;28;47161;-79
2023/03/16 01:36:10;;;;;;;6.33;3.93;;;0.90;51.20;;;;;;5012286;28;46523;-80
2023/03/16 01:38:36;;;;;;;6.75;3.45;;;0.90;51.20;;;;;;5014082;28;46477;-80
2023/03/16 01:41:03;;;;;;;6.23;3.90;;;0.90;51.30;;;;;;5013803;28;46477;-80
2023/03/16 01:43:32;;;;;;;10.73;4.00;;;0.80;51.30;;;;;;5013310;28;47275;-79
2023/03/16 01:46:03;;;;;;;7.40;4.13;;;0.80;51.40;;;;;;5010589;28;46279;-79
2023/03/16 01:48:56;;;;;;;4.88;3.53;;;0.70;51.40;;;;;;5009787;28;45792;-80
2023/03/16 01:51:30;;;;;;;6.30;3.92;;;0.70;51.50;;;;;;5000264;28;46532;-77
2023/03/16 01:54:01;;;;;;;5.53;3.65;;;0.70;51.30;;;;;;5012659;28;46466;-81
2023/03/16 01:56:38;;;;;;;5.78;3.45;;;0.70;51.50;;;;;;5014620;28;46428;-78
2023/03/16 01:59:08;;;;;;;5.57;3.55;;;0.70;51.60;;;;;;5012410;28;46466;-81
2023/03/16 02:01:34;;;;;;;8.48;3.55;;;0.70;51.60;;;;;;5018560;28;46423;-79
2023/03/16 02:04:30;;;;;;;9.45;3.95;;;0.60;51.60;;;;;;5018186;28;47269;-79
2023/03/16 02:06:56;;;;;;;8.35;3.90;;;0.60;51.80;;;;;;5012531;28;45820;-81
2023/03/16 02:09:23;;;;;;;7.68;4.00;;;0.60;51.70;;;;;;5012914;28;46507;-80
2023/03/16 02:11:50;;;;;;;10.50;5.43;;;0.60;51.90;;;;;;5010163;28;46362;-82
2023/03/16 02:14:15;;;;;;;5.57;3.70;;;0.50;51.90;;;;;;5011649;28;46496;-80
2023/03/16 02:16:41;;;;;;;6.77;4.10;;;0.60;52.20;;;;;;5014744;28;46418;-79
2023/03/16 02:19:12;;;;;;;7.20;4.67;;;0.60;52.20;;;;;;5013173;28;46454;-81
2023/03/16 02:21:46;;;;;;;8.85;4.95;;;0.60;52.40;;;;;;5013784;28;46554;-82
2023/03/16 02:24:11;;;;;;;8.05;4.25;;;0.50;52.40;;;;;;5014276;28;46229;-82
2023/03/16 02:27:03;;;;;;;6.30;4.17;;;0.60;52.50;;;;;;5014839;28;45790;-79
2023/03/16 02:30:00;;;;;;;11.32;4.63;;;0.60;52.60;;;;;;5017111;28;47145;-80
2023/03/16 02:32:28;;;;;;;14.93;5.47;;;0.50;52.70;;;;;;5013375;28;46639;-81
2023/03/16 02:34:55;;;;;;;7.28;4.05;;;0.50;52.80;;;;;;5017780;28;46355;-81
2023/03/16 02:37:20;;;;;;;9.30;4.95;;;0.50;53.00;;;;;;5017108;28;46455;-83
2023/03/16 02:39:46;;;;;;;9.67;4.97;;;0.50;53.30;;;;;;5015360;28;46700;-82
2023/03/16 02:42:15;;;;;;;8.80;4.50;;;0.40;53.30;;;;;;5021243;28;46462;-83
2023/03/16 02:44:45;;;;;;;8.35;4.35;;;0.40;53.50;;;;;;5017440;28;46950;-84
2023/03/16 02:47:26;;;;;;;17.98;4.35;;;0.40;53.60;;;;;;5015290;28;46445;-83
2023/03/16 02:49:52;;;;;;;7.47;4.78;;;0.40;53.80;;;;;;5020050;28;46341;-84
2023/03/16 02:52:17;;;;;;;7.20;4.50;;;0.40;53.80;;;;;;5012109;28;46574;-82
2023/03/16 02:54:43;;;;;;;7.23;4.30;;;0.40;53.90;;;;;;5010547;28;46348;-81
2023/03/16 02:57:09;;;;;;;12.37;4.93;;;0.40;53.80;;;;;;5012784;28;46371;-81
2023/03/16 02:59:35;;;;;;;10.93;4.68;;;0.40;53.80;;;;;;5013789;28;46383;-81
2023/03/16 03:02:00;;;;;;;8.27;5.17;;;0.40;53.80;;;;;;5039905;28;46503;-84
2023/03/16 03:04:26;;;;;;;8.80;5.10;;;0.40;53.80;;;;;;5015725;28;49573;-80
2023/03/16 03:06:52;;;;;;;14.90;4.80;;;0.40;53.90;;;;;;5015190;28;46394;-81
2023/03/16 03:09:18;;;;;;;10.67;5.23;;;0.40;54.00;;;;;;5017255;28;46498;-78
2023/03/16 03:11:47;;;;;;;8.55;4.97;;;0.40;54.00;;;;;;5019880;28;46465;-78
2023/03/16 03:14:15;;;;;;;9.60;5.10;;;0.40;54.10;;;;;;5012826;28;46489;-79
2023/03/16 03:16:41;;;;;;;12.65;5.60;;;0.40;54.20;;;;;;5013212;28;46363;-79
2023/03/16 03:19:06;;;;;;;12.30;5.97;;;0.40;54.30;;;;;;5016488;28;46504;-79
2023/03/16 03:21:32;;;;;;;12.10;6.43;;;0.40;54.30;;;;;;5017934;28;46447;-81
2023/03/16 03:23:57;;;;;;;13.77;7.17;;;0.40;54.50;;;;;;5028625;28;46606;-81
2023/03/16 03:26:23;;;;;;;11.30;6.70;;;0.40;54.90;;;;;;5032810;28;45775;-79
2023/03/16 03:28:49;;;;;;;12.50;6.25;;;0.40;55.00;;;;;;5016114;28;46379;-81
2023/03/16 03:31:16;;;;;;;10.00;6.33;;;0.40;55.10;;;;;;5018903;28;46978;-79
2023/03/16 03:33:42;;;;;;;14.32;7.38;;;0.40;55.30;;;;;;5014356;28;46300;-78
2023/03/16 03:36:10;;;;;;;9.05;5.50;;;0.40;55.40;;;;;;5014766;28;46106;-81
2023/03/16 03:38:35;;;;;;;13.15;6.95;;;0.40;55.40;;;;;;5013533;28;46460;-79
2023/03/16 03:41:01;;;;;;;15.33;7.50;;;0.30;55.50;;;;;;5016312;28;45901;-81
2023/03/16 03:43:27;;;;;;;17.00;10.20;;;0.30;55.70;;;;;;5017624;28;46580;-80
2023/03/16 03:45:57;;;;;;;63.47;25.53;;;0.30;56.10;;;;;;5013682;28;46469;-79
2023/03/16 03:48:23;;;;;;;20.92;10.07;;;0.30;56.20;;;;;;5015695;28;46162;-81
2023/03/16 03:50:48;;;;;;;13.73;7.55;;;0.40;56.10;;;;;;5016366;28;46360;-81
2023/03/16 03:53:14;;;;;;;13.40;7.50;;;0.30;56.20;;;;;;5013428;28;46424;-83
2023/03/16 03:55:39;;;;;;;12.63;7.70;;;0.30;56.40;;;;;;5015907;28;46476;-80
2023/03/16 03:58:05;;;;;;;19.70;7.70;;;0.30;56.70;;;;;;5013759;28;46659;-79
2023/03/16 04:00:30;;;;;;;17.53;8.40;;;0.20;56.90;;;;;;5019788;28;46896;-79
2023/03/16 04:02:56;;;;;;;12.90;7.97;;;0.20;57.10;;;;;;5014122;28;46411;-83
2023/03/16 04:05:24;;;;;;;21.07;8.67;;;0.20;57.10;;;;;;5014369;28;46436;-81
2023/03/16 04:07:53;;;;;;;16.23;8.25;;;0.20;57.10;;;;;;5011760;28;45815;-81
2023/03/16 04:10:19;;;;;;;15.32;8.38;;;0.20;57.10;;;;;;5010114;28;45905;-79
2023/03/16 04:12:45;;;;;;;15.10;7.90;;;0.10;57.00;;;;;;5014644;28;46865;-81
2023/03/16 04:15:11;;;;;;;14.83;8.13;;;0.10;57.20;;;;;;5014816;28;46532;-82
2023/03/16 04:17:37;;;;;;;17.70;9.50;;;0.10;57.30;;;;;;5016469;28;46519;-82
2023/03/16 04:20:06;;;;;;;17.70;9.67;;;0.10;57.30;;;;;;5016081;28;46606;-82
2023/03/16 04:22:32;;;;;;;19.70;8.88;;;0.10;57.10;;;;;;5016176;28;47057;-80
2023/03/16 04:24:57;;;;;;;17.13;8.63;;;0.10;57.30;;;;;;5016285;28;46352;-81
2023/03/16 04:27:23;;;;;;;18.73;9.70;;;0.10;57.40;;;;;;5016774;28;46900;-83
2023/03/16 04:29:48;;;;;;;18.43;9.47;;;0.10;57.20;;;;;;5014638;28;46431;-82
2023/03/16 04:32:14;;;;;;;22.43;9.63;;;0.10;57.30;;;;;;5016033;28;47077;-79
2023/03/16 04:34:42;;;;;;;19.57;10.23;;;0.10;57.40;;;;;;5017726;28;46423;-82
2023/03/16 04:37:08;;;;;;;17.65;8.93;;;0.10;57.20;;;;;;5015383;28;46284;-83
2023/03/16 04:39:33;;;;;;;21.13;9.33;;;0.10;57.50;;;;;;5012176;28;46474;-79
2023/03/16 04:42:00;;;;;;;21.33;10.97;;;0.10;57.50;;;;;;5014142;28;46439;-79
2023/03/16 04:44:26;;;;;;;21.92;10.05;;;0.10;57.70;;;;;;5009619;28;46389;-81
2023/03/16 04:46:51;;;;;;;28.03;10.70;;;0.10;57.80;;;;;;5012614;28;46484;-80
2023/03/16 04:49:17;;;;;;;23.77;10.10;;;0.10;57.70;;;;;;5009388;28;46431;-79
2023/03/16 04:51:42;;;;;;;27.70;11.07;;;0.10;57.70;;;;;;5029318;28;48380;-80
2023/03/16 04:54:08;;;;;;;23.00;11.33;;;0.10;57.90;;;;;;5013701;28;46430;-76
2023/03/16 04:56:34;;;;;;;22.80;11.70;;;0.10;57.90;;;;;;5009918;28;46194;-81
2023/03/16 04:59:00;;;;;;;22.53;11.73;;;0.10;57.90;;;;;;5012134;28;46670;-81
2023/03/16 05:01:26;;;;;;;22.75;12.45;;;0.10;58.00;;;;;;4968512;28;1226423;-82
2023/03/16 05:03:52;;;;;;;20.40;11.15;;;0.10;58.30;;;;;;5012988;28;46758;-80
2023/03/16 05:06:18;;;;;;;25.13;12.67;;;0.10;58.70;;;;;;5015485;28;46350;-79
2023/03/16 05:08:43;;;;;;;24.17;12.90;;;0.10;58.80;;;;;;5016215;28;46605;-77
2023/03/16 05:11:09;;;;;;;24.43;12.50;;;0.10;59.00;;;;;;5018085;28;47196;-79
2023/03/16 05:13:35;;;;;;;25.90;12.97;;;0.20;59.40;;;;;;5016801;28;46502;-80
2023/03/16 05:16:00;;;;;;;26.17;13.07;;;0.20;59.50;;;;;;5013400;28;46708;-77
2023/03/16 05:18:26;;;;;;;26.87;12.93;;;0.20;59.40;;;;;;5009122;28;46335;-81
2023/03/16 05:20:54;;;;;;;26.37;13.87;;;0.20;59.40;;;;;;5015207;28;46856;-79
2023/03/16 05:23:20;;;;;;;29.67;13.85;;;0.20;59.30;;;;;;5013917;28;46417;-81
2023/03/16 05:25:47;;;;;;;31.37;14.17;;;0.20;59.70;;;;;;5009912;28;46448;-79
2023/03/16 05:28:12;;;;;;;32.22;14.48;;;0.30;59.90;;;;;;5013636;28;46424;-81
2023/03/16 05:30:38;;;;;;;31.30;14.23;;;0.30;61.00;;;;;;5013440;28;46430;-79
2023/03/16 05:33:04;;;;;;;30.50;14.73;;;0.30;59.90;;;;;;5012999;28;46555;-82
2023/03/16 05:35:29;;;;;;;26.30;13.40;;;0.30;59.90;;;;;;5012222;28;46391;-80
2023/03/16 05:37:55;;;;;;;27.27;14.13;;;0.40;59.70;;;;;;5011628;28;46930;-80
2023/03/16 05:40:21;;;;;;;26.30;13.10;;;0.40;59.70;;;;;;5013569;28;46475;-80
2023/03/16 05:42:49;;;;;;;24.48;13.80;;;0.40;59.70;;;;;;5007308;28;46274;-81
2023/03/16 05:45:16;;;;;;;25.55;13.45;;;0.50;60.00;;;;;;5013218;28;46590;-82
2023/03/16 05:47:42;;;;;;;28.58;14.63;;;0.50;60.10;;;;;;5015697;28;46669;-79
2023/03/16 05:50:10;;;;;;;30.67;16.52;;;0.60;60.10;;;;;;5013326;28;46537;-78
2023/03/16 05:52:37;;;;;;;35.67;14.32;;;0.60;59.90;;;;;;5014552;28;47718;-79
2023/03/16 05:55:04;;;;;;;28.67;14.35;;;0.70;60.00;;;;;;5027290;28;46806;-78
2023/03/16 05:57:30;;;;;;;29.17;15.32;;;0.80;60.10;;;;;;5027094;28;46359;-80
2023/03/16 05:59:55;;;;;;;33.40;15.10;;;0.80;60.20;;;;;;5017047;28;46392;-83
2023/03/16 06:02:21;;;;;;;26.40;14.00;;;0.90;60.50;;;;;;5014967;28;46407;-82
2023/03/16 06:04:46;;;;;;;24.77;14.70;;;1.00;60.40;;;;;;5015117;28;46562;-81
2023/03/16 06:07:12;;;;;;;24.30;15.17;;;1.10;60.50;;;;;;5013845;28;46446;-78
2023/03/16 06:09:38;;;;;;;27.17;15.03;;;1.20;60.30;;;;;;5010546;28;47267;-81
2023/03/16 06:12:03;;;;;;;26.40;15.50;;;1.20;60.70;;;;;;5015594;28;46378;-83
2023/03/16 06:14:29;;;;;;;28.80;14.77;;;1.20;61.10;;;;;;5011908;28;46529;-83
2023/03/16 06:16:55;;;;;;;26.50;15.27;;;1.30;61.70;;;;;;5017001;28;47828;-83
2023/03/16 06:19:21;;;;;;;24.70;15.20;;;1.40;61.60;;;;;;5013649;28;46326;-83
2023/03/16 06:21:46;;;;;;;26.85;14.57;;;1.40;61.40;;;;;;5016406;28;46322;-83
2023/03/16 06:24:12;;;;;;;24.70;14.43;;;1.50;61.40;;;;;;5016738;28;46572;-83
2023/03/16 06:26:38;;;;;;;27.73;14.67;;;1.50;61.10;;;;;;5016628;28;46371;-82
2023/03/16 06:29:05;;;;;;;23.53;13.10;;;1.60;61.10;;;;;;5013523;28;46308;-80
2023/03/16 06:31:32;;;;;;;21.65;13.95;;;1.70;61.20;;;;;;5009935;28;46827;-80
2023/03/16 06:33:58;;;;;;;22.08;13.75;;;1.80;61.30;;;;;;5010933;28;46434;-80
2023/03/16 06:36:24;;;;;;;31.70;15.00;;;1.90;61.10;;;;;;5015008;28;46474;-82
2023/03/16 06:38:50;;;;;;;24.27;14.33;;;1.90;61.20;;;;;;5011404;28;46455;-81
2023/03/16 06:41:16;;;;;;;22.15;13.73;;;1.90;61.10;;;;;;5018898;28;46368;-82
2023/03/16 06:43:41;;;;;;;22.67;14.33;;;1.90;61.10;;;;;;5021204;28;46557;-80
2023/03/16 06:46:07;;;;;;;20.83;13.27;;;2.00;61.20;;;;;;5015171;28;45923;-79
2023/03/16 06:48:33;;;;;;;22.73;13.33;;;2.00;61.10;;;;;;5010899;28;46912;-80
2023/03/16 06:50:59;;;;;;;24.23;14.00;;;2.10;61.10;;;;;;5009912;28;46647;-80
2023/03/16 06:53:25;;;;;;;24.73;13.30;;;2.20;61.00;;;;;;5011464;28;47141;-79
2023/03/16 06:55:50;;;;;;;27.17;13.40;;;2.30;61.00;;;;;;5015623;28;46668;-80
2023/03/16 06:58:16;;;;;;;23.90;12.77;;;2.50;60.90;;;;;;5011542;28;46493;-77
2023/03/16 07:00:41;;;;;;;19.97;12.83;;;2.60;60.80;;;;;;5015192;28;46766;-79
2023/03/16 07:03:07;;;;;;;42.57;12.17;;;2.80;60.80;;;;;;5014461;28;46449;-80
2023/03/16 07:05:33;;;;;;;17.52;11.40;;;2.90;60.70;;;;;;5015086;28;46491;-78
2023/03/16 07:07:58;;;;;;;18.00;12.07;;;3.00;60.50;;;;;;5017551;28;49164;-79
2023/03/16 07:10:24;;;;;;;21.77;12.07;;;3.10;60.20;;;;;;5012355;28;46432;-81
2023/03/16 07:12:50;;;;;;;20.33;11.40;;;3.20;60.20;;;;;;5012868;28;46451;-80
2023/03/16 07:15:16;;;;;;;18.43;10.67;;;3.30;59.70;;;;;;5029047;28;46496;-81
2023/03/16 07:17:41;;;;;;;19.90;10.60;;;3.40;59.80;;;;;;5013640;28;46312;-78
2023/03/16 07:20:09;;;;;;;15.57;10.00;;;3.40;59.80;;;;;;5015430;28;46383;-82
2023/03/16 07:22:35;;;;;;;17.33;10.13;;;3.50;59.90;;;;;;5012085;28;46374;-82
2023/03/16 07:25:01;;;;;;;16.77;11.38;;;3.60;60.00;;;;;;5017354;28;46410;-81
2023/03/16 07:27:28;;;;;;;16.98;9.60;;;3.60;60.00;;;;;;5014973;28;46937;-80
2023/03/16 07:29:54;;;;;;;18.08;10.40;;;3.50;60.00;;;;;;5020604;28;46507;-79
2023/03/16 07:32:21;;;;;;;22.88;11.18;;;3.50;59.90;;;;;;5018829;28;45784;-80
2023/03/16 07:34:46;;;;;;;16.57;11.00;;;3.70;60.00;;;;;;5015176;28;46496;-80
2023/03/16 07:37:13;;;;;;;14.73;9.97;;;3.90;60.10;;;;;;5016999;28;47143;-78
2023/03/16 07:39:38;;;;;;;14.77;9.50;;;3.90;59.50;;;;;;5012528;28;46446;-80
2023/03/16 07:42:04;;;;;;;16.80;9.63;;;4.10;59.10;;;;;;5011384;28;46667;-77
2023/03/16 07:44:30;;;;;;;15.60;9.23;;;4.00;58.90;;;;;;5015960;28;46400;-78
2023/03/16 07:46:56;;;;;;;15.17;8.77;;;4.00;59.00;;;;;;5042198;28;48981;-78
2023/03/16 07:49:26;;;;;;;14.30;8.47;;;4.00;59.10;;;;;;5013849;28;46946;-76
2023/03/16 07:51:52;;;;;;;18.63;9.10;;;4.10;59.10;;;;;;5018711;28;46424;-76
2023/03/16 07:54:17;;;;;;;13.70;8.70;;;4.20;58.80;;;;;;5018593;28;46484;-77
2023/03/16 07:56:43;;;;;;;14.00;8.10;;;4.50;58.30;;;;;;5018908;28;46341;-76
2023/03/16 07:59:09;;;;;;;13.87;7.77;;;4.60;57.60;;;;;;5023653;28;46406;-80
2023/03/16 08:01:34;;;;;;;11.00;7.80;;;4.70;57.30;;;;;;5017338;28;46549;-80
2023/03/16 08:04:00;;;;;;;16.03;8.50;;;4.80;56.50;;;;;;5020453;28;46350;-81
2023/03/16 08:06:27;;;;;;;12.03;8.00;;;4.80;56.40;;;;;;5023183;28;47124;-77
2023/03/16 08:08:53;;;;;;;11.03;6.87;;;4.90;56.20;;;;;;5018294;28;46708;-79
2023/03/16 08:11:22;;;;;;;13.50;6.70;;;5.00;55.70;;;;;;5017815;28;46797;-81
2023/03/16 08:13:52;;;;;;;11.20;7.27;;;5.10;55.60;;;;;;5015395;28;46905;-77
2023/03/16 08:16:20;;;;;;;10.73;7.23;;;5.20;55.10;;;;;;5011104;28;47718;-79
2023/03/16 08:18:46;;;;;;;9.37;5.70;;;5.20;54.60;;;;;;5012417;28;46465;-78
2023/03/16 08:21:11;;;;;;;10.63;6.70;;;5.10;54.40;;;;;;5017413;28;45804;-79
2023/03/16 08:23:37;;;;;;;12.07;6.80;;;5.10;54.30;;;;;;5016221;28;46402;-80
2023/03/16 08:26:07;;;;;;;11.03;7.60;;;5.20;54.30;;;;;;5016743;28;47142;-79
2023/03/16 08:28:34;;;;;;;9.40;6.10;;;5.30;54.20;;;;;;5017427;28;46532;-77
2023/03/16 08:31:00;;;;;;;10.27;6.50;;;5.40;53.70;;;;;;5020522;28;46655;-79
2023/03/16 08:33:26;;;;;;;9.87;5.93;;;5.50;53.30;;;;;;5020167;28;46690;-79
2023/03/16 08:35:53;;;;;;;10.13;6.77;;;5.50;53.20;;;;;;5016227;28;47089;-78
2023/03/16 08:38:19;;;;;;;11.43;6.10;;;5.60;52.70;;;;;;5021821;28;45745;-78
2023/03/16 08:40:47;;;;;;;9.53;6.17;;;5.60;52.30;;;;;;5014882;28;46520;-78
2023/03/16 08:43:17;;;;;;;11.20;5.97;;;5.70;52.20;;;;;;5017359;28;46379;-77
2023/03/16 08:45:47;;;;;;;10.20;6.10;;;5.70;51.70;;;;;;5015322;28;46332;-79
2023/03/16 08:48:13;;;;;;;7.30;6.10;;;5.80;51.80;;;;;;5017055;28;46681;-77
2023/03/16 08:50:43;;;;;;;9.63;5.70;;;5.90;50.90;;;;;;5018000;28;46388;-79
2023/03/16 08:53:10;;;;;;;14.70;5.63;;;6.10;50.70;;;;;;5016698;28;45978;-80
2023/03/16 08:55:36;;;;;;;12.37;5.53;;;6.20;50.00;;;;;;5015765;28;46498;-79
2023/03/16 08:58:02;;;;;;;8.70;5.70;;;6.30;49.40;;;;;;5012420;28;45813;-79
2023/03/16 09:00:28;;;;;;;9.57;5.60;;;6.40;49.50;;;;;;5023190;28;46533;-79
2023/03/16 09:02:55;;;;;;;6.70;4.93;;;6.50;48.40;;;;;;5025100;28;45862;-80
2023/03/16 09:05:22;;;;;;;7.33;5.20;;;6.50;48.30;;;;;;5018057;28;48408;-79
2023/03/16 09:07:48;;;;;;;7.93;4.77;;;6.50;48.40;;;;;;5013227;28;46368;-78
2023/03/16 09:10:14;;;;;;;7.20;4.87;;;6.40;48.50;;;;;;5013238;28;46454;-78
2023/03/16 09:12:41;;;;;;;10.63;5.20;;;6.50;47.90;;;;;;5017070;28;46446;-78
2023/03/16 09:15:09;;;;;;;8.67;4.50;;;6.50;46.60;;;;;;5021551;28;47299;-79
2023/03/16 09:17:35;;;;;;;8.00;4.37;;;6.70;46.20;;;;;;5018816;28;46811;-80
2023/03/16 09:20:03;;;;;;;6.97;4.37;;;6.90;46.00;;;;;;5015372;28;46394;-79
2023/03/16 09:22:29;;;;;;;7.93;4.37;;;7.00;44.40;;;;;;5013813;28;46401;-78
2023/03/16 09:24:55;;;;;;;8.07;4.80;;;7.00;43.00;;;;;;5017316;28;47233;-79
2023/03/16 09:27:21;;;;;;;8.87;4.30;;;7.10;43.10;;;;;;5020655;28;46612;-79
2023/03/16 09:29:48;;;;;;;6.80;4.60;;;7.00;42.50;;;;;;5010080;28;46425;-80
2023/03/16 09:32:14;;;;;;;6.90;4.63;;;7.00;42.80;;;;;;5014462;28;46518;-80
2023/03/16 09:34:39;;;;;;;11.63;3.50;;;7.10;42.70;;;;;;5016048;28;46531;-78
2023/03/16 09:37:05;;;;;;;10.43;4.30;;;7.20;41.90;;;;;;5017052;28;46392;-80
2023/03/16 09:39:31;;;;;;;7.33;4.30;;;7.10;41.10;;;;;;5011067;28;45809;-81
2023/03/16 09:42:03;;;;;;;6.63;3.73;;;7.30;40.70;;;;;;5014454;28;46342;-80
2023/03/16 09:44:53;;;;;;;5.83;3.33;;;7.40;40.50;;;;;;5016136;28;46502;-80
2023/03/16 09:47:27;;;;;;;7.70;4.10;;;7.40;39.80;;;;;;5016479;28;46421;-80
2023/03/16 09:49:59;;;;;;;9.20;3.90;;;7.50;39.20;;;;;;5020713;28;45889;-80
2023/03/16 09:52:44;;;;;;;6.87;4.20;;;7.70;39.70;;;;;;5023169;28;46378;-80
2023/03/16 09:55:19;;;;;;;7.33;4.10;;;7.80;39.10;;;;;;5053148;28;48190;-81
2023/03/16 09:57:46;;;;;;;11.17;4.40;;;7.80;39.00;;;;;;5016174;28;46509;-81
2023/03/16 10:00:22;;;;;;;9.03;4.90;;;7.80;38.50;;;;;;5021850;28;46341;-83
2023/03/16 10:02:57;;;;;;;7.40;4.93;;;8.10;37.90;;;;;;5035181;28;45830;-78
2023/03/16 10:05:23;;;;;;;8.67;5.13;;;8.10;37.90;;;;;;5017951;28;47473;-80
2023/03/16 10:08:23;;;;;;;8.53;4.70;;;8.00;38.30;;;;;;5020568;28;46365;-79
2023/03/16 10:11:11;;;;;;;7.77;5.73;;;8.00;38.80;;;;;;4974455;28;46462;-79
2023/03/16 10:14:00;;;;;;;7.60;4.67;;;8.10;38.70;;;;;;5014326;28;46549;-79
2023/03/16 10:16:40;;;;;;;9.77;5.50;;;8.10;37.80;;;;;;5014772;28;47083;-77
2023/03/16 10:19:15;;;;;;;7.83;4.90;;;8.30;37.90;;;;;;5015562;28;46545;-79
2023/03/16 10:21:40;;;;;;;7.70;5.20;;;8.20;37.90;;;;;;5011634;28;46612;-80
2023/03/16 10:24:41;;;;;;;9.40;5.13;;;8.20;37.80;;;;;;5012229;28;45840;-79
2023/03/16 10:27:13;;;;;;;5.43;3.53;;;8.10;37.70;;;;;;5010410;28;46745;-80
2023/03/16 10:29:40;;;;;;;9.53;5.07;;;8.20;37.80;;;;;;5011664;28;46453;-78
2023/03/16 10:32:15;;;;;;;8.90;5.00;;;8.30;37.10;;;;;;5014840;28;46474;-79
2023/03/16 10:35:07;;;;;;;7.20;4.20;;;8.40;37.10;;;;;;5013472;28;46653;-80
2023/03/16 10:37:33;;;;;;;6.07;4.20;;;8.40;36.20;;;;;;4992374;28;46483;-80
2023/03/16 10:39:59;;;;;;;6.60;4.10;;;8.40;36.30;;;;;;5019880;28;46260;-79
2023/03/16 10:42:26;;;;;;;6.73;4.57;;;8.50;35.10;;;;;;5017498;28;46379;-81
2023/03/16 10:44:58;;;;;;;7.30;4.43;;;8.50;35.30;;;;;;5028811;28;46674;-79
2023/03/16 10:47:30;;;;;;;6.67;4.13;;;8.50;34.70;;;;;;5025925;28;46471;-79
2023/03/16 10:49:55;;;;;;;6.93;4.80;;;8.60;34.50;;;;;;5048405;28;46532;-79
2023/03/16 10:52:24;;;;;;;14.70;5.27;;;8.70;34.10;;;;;;5012135;28;46551;-80
2023/03/16 10:55:06;;;;;;;12.33;3.97;;;8.80;34.20;;;;;;5010313;28;46598;-78
2023/03/16 10:57:34;;;;;;;6.97;3.93;;;8.90;33.80;;;;;;5013448;28;46620;-80
2023/03/16 11:00:20;;;;;;;6.77;3.87;;;8.90;32.70;;;;;;5014728;28;46645;-80
2023/03/16 11:02:50;;;;;;;6.93;4.50;;;9.00;32.30;;;;;;5012549;28;46380;-79
2023/03/16 11:05:29;;;;;;;10.70;3.53;;;8.90;32.00;;;;;;5015904;28;47281;-81
2023/03/16 11:07:59;;;;;;;5.63;3.70;;;9.00;31.60;;;;;;5012107;28;46333;-79
2023/03/16 11:10:30;;;;;;;7.07;4.40;;;9.10;30.70;;;;;;5017603;28;46828;-79
2023/03/16 11:13:09;;;;;;;10.03;3.70;;;9.40;30.90;;;;;;5019481;28;46436;-81
2023/03/16 11:15:56;;;;;;;6.03;4.20;;;9.50;30.30;;;;;;5048133;28;45870;-81
2023/03/16 11:18:31;;;;;;;6.23;4.07;;;9.50;30.00;;;;;;4994714;28;47211;-80
2023/03/16 11:21:11;;;;;;;8.53;3.33;;;9.30;28.80;;;;;;5030831;28;46448;-80
2023/03/16 11:23:41;;;;;;;5.33;3.33;;;9.10;27.80;;;;;;5020820;28;46605;-81
2023/03/16 11:26:14;;;;;;;10.00;3.10;;;9.10;28.30;;;;;;5055169;28;46665;-81
2023/03/16 11:28:45;;;;;;;6.40;3.40;;;9.20;27.60;;;;;;5034072;28;47196;-81
2023/03/16 11:31:10;;;;;;;6.13;3.60;;;9.40;27.50;;;;;;5025869;28;46693;-80
2023/03/16 11:33:36;;;;;;;4.33;3.00;;;9.50;27.30;;;;;;5019764;28;45804;-81
2023/03/16 11:36:36;;;;;;;5.27;2.70;;;9.40;27.30;;;;;;5017143;28;46501;-82
2023/03/16 11:39:17;;;;;;;8.17;3.90;;;9.60;26.60;;;;;;5017644;28;46623;-81
2023/03/16 11:42:12;;;;;;;4.90;3.30;;;9.70;26.70;;;;;;5019421;28;45812;-81
2023/03/16 11:44:58;;;;;;;7.87;3.83;;;9.90;26.80;;;;;;5018511;28;46367;-79
2023/03/16 11:48:05;;;;;;;7.90;3.90;;;10.00;25.80;;;;;;5024707;28;46435;-81
2023/03/16 11:50:54;;;;;;;5.07;3.00;;;9.90;25.70;;;;;;5018876;28;46495;-81
2023/03/16 11:53:38;;;;;;;5.00;3.10;;;10.10;25.70;;;;;;5025967;28;45816;-79
2023/03/16 11:56:22;;;;;;;5.13;3.37;;;10.10;24.90;;;;;;5020098;28;46552;-81
2023/03/16 11:59:07;;;;;;;6.00;3.07;;;10.10;24.80;;;;;;5019016;28;46500;-79
2023/03/16 12:01:53;;;;;;;7.50;3.83;;;10.10;24.20;;;;;;5015784;28;46106;-81
2023/03/16 12:04:28;;;;;;;4.67;3.30;;;9.80;24.90;;;;;;5017368;28;45780;-82
2023/03/16 12:07:24;;;;;;;9.83;3.33;;;9.80;26.30;;;;;;5013136;28;46346;-80
2023/03/16 12:10:00;;;;;;;6.23;2.97;;;9.80;24.90;;;;;;5012761;28;46620;-80
2023/03/16 12:12:36;;;;;;;6.80;3.00;;;9.90;24.90;;;;;;5012902;28;46730;-79
2023/03/16 12:15:23;;;;;;;8.80;3.80;;;9.90;24.50;;;;;;5011102;28;46985;-79
2023/03/16 12:17:51;;;;;;;5.83;2.93;;;9.80;24.20;;;;;;5014058;28;46362;-79
2023/03/16 12:20:30;;;;;;;9.83;3.20;;;10.00;23.80;;;;;;5012816;28;46411;-80
2023/03/16 12:23:09;;;;;;;4.80;3.27;;;10.10;23.70;;;;;;5016509;28;46408;-80
2023/03/16 12:25:39;;;;;;;7.87;3.73;;;10.00;23.50;;;;;;5014809;28;46592;-81
2023/03/16 12:28:27;;;;;;;6.23;3.17;;;9.90;23.80;;;;;;5017384;28;46717;-81
2023/03/16 12:31:08;;;;;;;5.00;3.70;;;10.10;23.40;;;;;;5017964;28;46155;-81
2023/03/16 12:34:01;;;;;;;5.60;3.57;;;10.20;23.30;;;;;;5013675;28;46342;-81
2023/03/16 12:36:59;;;;;;;6.27;3.70;;;10.20;23.00;;;;;;5009308;28;46425;-77
2023/03/16 12:39:50;;;;;;;5.17;3.00;;;10.30;22.70;;;;;;5013760;28;46482;-80
2023/03/16 12:42:24;;;;;;;4.87;3.50;;;10.10;22.20;;;;;;5011153;28;46850;-80
2023/03/16 12:44:59;;;;;;;7.53;3.10;;;10.00;23.00;;;;;;5012304;28;46866;-77
2023/03/16 12:48:11;;;;;;;8.30;3.40;;;9.80;23.70;;;;;;5021233;28;46370;-81
2023/03/16 12:50:51;;;;;;;4.87;3.20;;;9.80;24.00;;;;;;5015729;28;46526;-80
2023/03/16 12:53:52;;;;;;;6.40;3.73;;;9.70;23.90;;;;;;5012272;28;46310;-81
2023/03/16 12:56:25;;;;;;;6.83;3.50;;;9.70;24.30;;;;;;5015460;28;46464;-81
2023/03/16 12:58:55;;;;;;;6.90;3.50;;;9.70;24.40;;;;;;5015272;28;46902;-79
2023/03/16 13:01:29;;;;;;;7.80;4.40;;;9.80;24.30;;;;;;5016049;28;46390;-79